Time;durP1;ratioP1;P1;durP2;ratioP2;P2;SDS_P1;SDS_P2;PMS_P1;PMS_P2;Temp;Humidity;BMP_temperature;BMP_pressure;BME280_temperature;BME280_humidity;BME280_pressure;Samples;Min_cycle;Max_cycle;Signal;HPM_P1;HPM_P2
2021/10/12 00:00:40;;;;;;;14.90;12.60;;;9.90;99.90;;;;;;5029974;28;20199;-76
2021/10/12 00:03:05;;;;;;;12.40;11.20;;;9.90;99.90;;;;;;5025233;28;20179;-75
2021/10/12 00:05:31;;;;;;;14.57;11.83;;;9.90;99.90;;;;;;5036251;28;20630;-77
2021/10/12 00:07:56;;;;;;;12.83;11.37;;;9.90;99.90;;;;;;5035415;28;20204;-76
2021/10/12 00:10:22;;;;;;;15.20;12.37;;;9.90;99.90;;;;;;5034968;28;20230;-76
2021/10/12 00:12:48;;;;;;;13.20;11.80;;;9.90;99.90;;;;;;5035787;28;20260;-77
2021/10/12 00:15:13;;;;;;;12.57;11.27;;;9.90;99.90;;;;;;5035585;28;20203;-76
2021/10/12 00:17:39;;;;;;;14.20;12.13;;;9.90;99.90;;;;;;5036001;28;20207;-76
2021/10/12 00:20:06;;;;;;;16.73;12.67;;;9.80;99.90;;;;;;5036082;28;20200;-75
2021/10/12 00:22:32;;;;;;;15.73;12.43;;;9.90;99.90;;;;;;5034809;28;20272;-75
2021/10/12 00:24:58;;;;;;;14.47;12.30;;;9.80;99.90;;;;;;5035348;28;20288;-77
2021/10/12 00:27:23;;;;;;;13.37;11.97;;;9.90;99.90;;;;;;5035544;28;20216;-77
2021/10/12 00:29:49;;;;;;;16.97;11.83;;;9.80;99.90;;;;;;5034458;28;20736;-76
2021/10/12 00:32:15;;;;;;;13.53;12.13;;;9.80;99.90;;;;;;5034692;28;20176;-77
2021/10/12 00:34:41;;;;;;;16.93;12.27;;;9.80;99.90;;;;;;5035855;28;20688;-77
2021/10/12 00:37:06;;;;;;;16.63;11.57;;;9.80;99.90;;;;;;5035748;28;20199;-76
2021/10/12 00:39:32;;;;;;;12.97;11.53;;;9.80;99.90;;;;;;5035764;28;20177;-77
2021/10/12 00:41:58;;;;;;;13.70;12.00;;;9.80;99.90;;;;;;5035815;28;20176;-76
2021/10/12 00:44:26;;;;;;;12.33;11.13;;;9.80;99.90;;;;;;5035743;28;20183;-76
2021/10/12 00:46:52;;;;;;;13.23;11.67;;;9.80;99.90;;;;;;5036383;28;20181;-76
2021/10/12 00:49:18;;;;;;;14.53;11.00;;;9.80;99.90;;;;;;5034381;28;20698;-76
2021/10/12 00:51:44;;;;;;;15.37;11.37;;;9.70;99.90;;;;;;5034371;28;20189;-76
2021/10/12 00:54:10;;;;;;;15.70;12.10;;;9.70;99.90;;;;;;5034500;28;20172;-76
2021/10/12 00:56:36;;;;;;;13.83;11.13;;;9.70;99.90;;;;;;5034264;28;20169;-76
2021/10/12 00:59:02;;;;;;;12.83;11.20;;;9.70;99.90;;;;;;5031007;28;20205;-76
2021/10/12 01:01:28;;;;;;;14.50;11.67;;;9.70;99.90;;;;;;5033094;28;20261;-76
2021/10/12 01:03:53;;;;;;;15.07;11.57;;;9.60;99.90;;;;;;5034398;28;20600;-77
2021/10/12 01:06:19;;;;;;;12.47;10.77;;;9.60;99.90;;;;;;5032192;28;20647;-77
2021/10/12 01:08:45;;;;;;;13.30;11.43;;;9.60;99.90;;;;;;5044452;28;20226;-78
2021/10/12 01:11:11;;;;;;;11.60;10.40;;;9.60;99.90;;;;;;5033146;28;20243;-79
2021/10/12 01:13:38;;;;;;;18.30;11.13;;;9.60;99.90;;;;;;5028331;28;20185;-78
2021/10/12 01:16:04;;;;;;;14.30;11.80;;;9.60;99.90;;;;;;5027573;28;20168;-78
2021/10/12 01:18:31;;;;;;;12.33;10.97;;;9.60;99.90;;;;;;5020436;28;20332;-77
2021/10/12 01:20:57;;;;;;;12.57;11.20;;;9.60;99.90;;;;;;5022073;28;20273;-77
2021/10/12 01:23:23;;;;;;;11.67;10.53;;;9.60;99.90;;;;;;5018038;28;20255;-77
2021/10/12 01:25:49;;;;;;;14.37;11.47;;;9.60;99.90;;;;;;5017446;28;20656;-76
2021/10/12 01:28:15;;;;;;;12.60;11.30;;;9.50;99.90;;;;;;5020878;28;20222;-76
2021/10/12 01:30:41;;;;;;;14.67;11.10;;;9.50;99.90;;;;;;5016323;28;20598;-77
2021/10/12 01:33:07;;;;;;;11.60;10.47;;;9.50;99.90;;;;;;5029152;28;20166;-79
2021/10/12 01:35:33;;;;;;;12.67;11.37;;;9.40;99.90;;;;;;5032353;28;20180;-76
2021/10/12 01:37:59;;;;;;;13.00;10.97;;;9.40;99.90;;;;;;5032205;28;20244;-76
2021/10/12 01:40:25;;;;;;;13.00;11.53;;;9.50;99.90;;;;;;5030493;28;20167;-76
2021/10/12 01:42:51;;;;;;;12.30;11.00;;;9.40;99.90;;;;;;5030900;28;20557;-77
2021/10/12 01:45:17;;;;;;;12.07;10.77;;;9.40;99.90;;;;;;5030692;28;20243;-77
2021/10/12 01:47:43;;;;;;;12.90;10.87;;;9.40;99.90;;;;;;5030620;28;20206;-77
2021/10/12 01:50:11;;;;;;;12.73;10.13;;;9.30;99.90;;;;;;5029553;28;20559;-76
2021/10/12 01:52:37;;;;;;;10.97;9.77;;;9.30;99.90;;;;;;5031794;28;20254;-76
2021/10/12 01:55:04;;;;;;;12.40;10.13;;;9.20;99.90;;;;;;5029636;28;20690;-75
2021/10/12 01:57:29;;;;;;;15.03;10.67;;;9.20;99.90;;;;;;5032596;28;20720;-76
2021/10/12 01:59:55;;;;;;;11.70;10.47;;;9.10;99.90;;;;;;5027169;28;20178;-77
2021/10/12 02:02:21;;;;;;;11.70;10.60;;;9.10;99.90;;;;;;5032773;28;20597;-76
2021/10/12 02:04:46;;;;;;;11.27;9.97;;;9.10;99.90;;;;;;5034241;28;20251;-77
2021/10/12 02:07:12;;;;;;;12.13;10.93;;;9.10;99.90;;;;;;5022170;28;20206;-76
2021/10/12 02:09:38;;;;;;;12.37;11.07;;;9.10;99.90;;;;;;5025766;28;20181;-77
2021/10/12 02:12:04;;;;;;;12.03;10.67;;;9.20;99.90;;;;;;5033945;28;20169;-77
2021/10/12 02:14:30;;;;;;;12.83;11.30;;;9.20;99.90;;;;;;5026941;28;20220;-76
2021/10/12 02:16:55;;;;;;;14.07;11.77;;;9.20;99.90;;;;;;5028777;28;20653;-77
2021/10/12 02:19:21;;;;;;;12.73;11.47;;;9.20;99.90;;;;;;5033424;28;20166;-76
2021/10/12 02:21:47;;;;;;;14.07;12.30;;;9.20;99.90;;;;;;5033022;28;20185;-76
2021/10/12 02:24:12;;;;;;;16.67;11.53;;;9.30;99.90;;;;;;5032837;28;20190;-77
2021/10/12 02:26:38;;;;;;;13.37;11.97;;;9.20;99.90;;;;;;5029367;28;20184;-77
2021/10/12 02:29:04;;;;;;;12.43;11.03;;;9.30;99.90;;;;;;5033442;28;20619;-76
2021/10/12 02:31:30;;;;;;;13.73;11.13;;;9.30;99.90;;;;;;5032265;28;20197;-77
2021/10/12 02:33:56;;;;;;;14.37;11.73;;;9.30;99.90;;;;;;5070902;22;20280;-76
2021/10/12 02:36:22;;;;;;;13.13;11.10;;;9.30;99.90;;;;;;5016494;28;20643;-75
2021/10/12 02:38:48;;;;;;;15.63;12.10;;;9.30;99.90;;;;;;5016213;28;20175;-76
2021/10/12 02:41:13;;;;;;;15.27;11.83;;;9.30;99.90;;;;;;5012527;28;20568;-75
2021/10/12 02:43:39;;;;;;;15.70;11.80;;;9.30;99.90;;;;;;5000995;28;20291;-76
2021/10/12 02:46:05;;;;;;;13.57;11.00;;;9.30;99.90;;;;;;4994234;28;20180;-76
2021/10/12 02:48:30;;;;;;;14.83;11.37;;;9.30;99.90;;;;;;4992821;28;20659;-76
2021/10/12 02:50:57;;;;;;;15.13;12.03;;;9.30;99.90;;;;;;4994029;28;20251;-76
2021/10/12 02:53:22;;;;;;;14.27;11.83;;;9.30;99.90;;;;;;4994397;28;20212;-75
2021/10/12 02:55:48;;;;;;;13.00;11.53;;;9.20;99.90;;;;;;4993890;28;20188;-76
2021/10/12 02:58:14;;;;;;;13.43;11.43;;;9.30;99.90;;;;;;4993770;28;20177;-76
2021/10/12 03:00:40;;;;;;;16.97;11.20;;;9.30;99.90;;;;;;4992721;28;20588;-76
2021/10/12 03:03:14;;;;;;;11.40;10.10;;;9.30;99.90;;;;;;4993881;28;20706;-75
2021/10/12 03:05:44;;;;;;;11.73;10.20;;;9.30;99.90;;;;;;4993826;28;20266;-76
2021/10/12 03:08:10;;;;;;;12.77;10.30;;;9.30;99.90;;;;;;4992629;28;20194;-76
2021/10/12 03:10:36;;;;;;;12.53;9.77;;;9.20;99.90;;;;;;4992492;28;20205;-76
2021/10/12 03:13:01;;;;;;;12.20;10.57;;;9.20;99.90;;;;;;4992433;28;20679;-76
2021/10/12 03:15:27;;;;;;;14.77;10.50;;;9.20;99.90;;;;;;4992293;28;20181;-76
2021/10/12 03:17:52;;;;;;;10.67;9.50;;;9.20;99.90;;;;;;4992808;28;20247;-76
2021/10/12 03:20:21;;;;;;;13.47;10.57;;;9.10;99.90;;;;;;4993678;28;20190;-75
2021/10/12 03:22:47;;;;;;;11.40;9.47;;;9.10;99.90;;;;;;4992332;28;20203;-75
2021/10/12 03:25:12;;;;;;;11.23;9.87;;;9.20;99.90;;;;;;4992406;28;20189;-75
2021/10/12 03:27:38;;;;;;;10.70;9.70;;;9.20;99.90;;;;;;4993524;28;20178;-76
2021/10/12 03:30:05;;;;;;;11.27;10.07;;;9.00;99.90;;;;;;4993435;28;20544;-76
2021/10/12 03:32:31;;;;;;;10.33;9.30;;;9.10;99.90;;;;;;4992283;28;20214;-76
2021/10/12 03:34:57;;;;;;;14.30;10.10;;;9.00;99.90;;;;;;4994019;28;20177;-76
2021/10/12 03:37:22;;;;;;;16.10;10.50;;;9.00;99.90;;;;;;5000297;28;20264;-76
2021/10/12 03:39:48;;;;;;;11.70;10.00;;;9.00;99.90;;;;;;4998782;28;20180;-76
2021/10/12 03:42:14;;;;;;;14.80;10.70;;;9.00;99.90;;;;;;4999244;28;20183;-76
2021/10/12 03:44:39;;;;;;;12.50;11.20;;;9.00;99.90;;;;;;5000025;28;20231;-76
2021/10/12 03:47:05;;;;;;;14.93;11.30;;;9.00;99.90;;;;;;4998573;28;20176;-76
2021/10/12 03:49:30;;;;;;;14.00;10.70;;;8.90;99.90;;;;;;5000029;28;20176;-76
2021/10/12 03:51:56;;;;;;;12.50;10.70;;;9.00;99.90;;;;;;4998201;28;20218;-76
2021/10/12 03:54:22;;;;;;;11.47;10.33;;;9.00;99.90;;;;;;4999562;28;20274;-76
2021/10/12 03:56:48;;;;;;;13.97;10.27;;;8.90;99.90;;;;;;4999358;28;20242;-76
2021/10/12 03:59:13;;;;;;;14.97;10.53;;;8.90;99.90;;;;;;4999520;28;20176;-76
2021/10/12 04:01:39;;;;;;;11.53;10.33;;;9.00;99.90;;;;;;4996431;28;20722;-76
2021/10/12 04:04:05;;;;;;;15.83;11.73;;;9.00;99.90;;;;;;4997065;28;20231;-75
2021/10/12 04:06:30;;;;;;;13.07;11.73;;;9.00;99.90;;;;;;4999341;28;20208;-76
2021/10/12 04:08:56;;;;;;;14.67;11.97;;;9.00;99.90;;;;;;4998460;28;20176;-76
2021/10/12 04:11:23;;;;;;;13.47;12.07;;;9.10;99.90;;;;;;4996179;28;20255;-76
2021/10/12 04:13:49;;;;;;;13.67;11.60;;;9.10;99.90;;;;;;5014973;28;20207;-76
2021/10/12 04:16:14;;;;;;;13.77;11.20;;;9.10;99.90;;;;;;4999425;28;20585;-76
2021/10/12 04:18:41;;;;;;;15.40;11.10;;;9.10;99.90;;;;;;5000232;28;20180;-75
2021/10/12 04:21:06;;;;;;;11.50;10.30;;;9.10;99.90;;;;;;4999683;28;20530;-76
2021/10/12 04:23:32;;;;;;;12.93;11.27;;;9.10;99.90;;;;;;4992880;28;20212;-76
2021/10/12 04:25:58;;;;;;;11.00;9.80;;;9.00;99.90;;;;;;4997005;28;20183;-76
2021/10/12 04:28:24;;;;;;;12.90;10.40;;;9.00;99.90;;;;;;4996339;28;20192;-76
2021/10/12 04:30:50;;;;;;;14.23;11.10;;;8.90;99.90;;;;;;4997381;28;20209;-76
2021/10/12 04:33:16;;;;;;;12.50;11.20;;;8.90;99.90;;;;;;4998562;28;20212;-74
2021/10/12 04:35:43;;;;;;;15.10;11.07;;;8.90;99.90;;;;;;4998339;28;20172;-76
2021/10/12 04:38:09;;;;;;;16.00;11.30;;;8.90;99.90;;;;;;4996273;28;20185;-75
2021/10/12 04:40:35;;;;;;;12.70;10.47;;;8.90;99.90;;;;;;4997506;28;20209;-75
2021/10/12 04:43:03;;;;;;;12.40;10.73;;;9.00;99.90;;;;;;4998349;28;20205;-74
2021/10/12 04:45:30;;;;;;;14.33;11.57;;;8.90;99.90;;;;;;4999961;28;20177;-75
2021/10/12 04:47:55;;;;;;;18.20;11.77;;;8.90;99.90;;;;;;4995780;28;20187;-76
2021/10/12 04:50:21;;;;;;;16.60;11.87;;;8.90;99.90;;;;;;4996016;28;20202;-77
2021/10/12 04:52:48;;;;;;;14.93;11.70;;;8.90;99.90;;;;;;4983569;28;20226;-76
2021/10/12 04:55:14;;;;;;;14.13;10.50;;;8.90;99.90;;;;;;4994734;28;20601;-76
2021/10/12 04:57:39;;;;;;;12.87;10.50;;;9.00;99.90;;;;;;4994845;28;20211;-77
2021/10/12 05:00:07;;;;;;;14.40;11.63;;;8.90;99.90;;;;;;4994010;28;20207;-76
2021/10/12 05:02:33;;;;;;;20.60;12.03;;;9.00;99.90;;;;;;4993208;28;20264;-76
2021/10/12 05:04:59;;;;;;;16.97;11.80;;;9.00;99.90;;;;;;4976587;28;20609;-76
2021/10/12 05:07:25;;;;;;;21.17;13.30;;;9.00;99.90;;;;;;4989786;28;20191;-77
2021/10/12 05:09:50;;;;;;;16.40;12.60;;;9.00;99.90;;;;;;4994941;28;20187;-77
2021/10/12 05:12:17;;;;;;;15.27;11.67;;;9.00;99.90;;;;;;4994472;28;20194;-77
2021/10/12 05:14:43;;;;;;;18.33;12.50;;;9.00;99.90;;;;;;4997331;28;20182;-76
2021/10/12 05:17:34;;;;;;;12.63;10.70;;;9.10;99.90;;;;;;4994313;28;20175;-77
2021/10/12 05:19:59;;;;;;;13.73;11.10;;;9.10;99.90;;;;;;4990581;28;20194;-77
2021/10/12 05:22:25;;;;;;;14.07;11.47;;;9.10;99.90;;;;;;4993357;28;20258;-77
2021/10/12 05:24:51;;;;;;;13.20;11.27;;;9.10;99.90;;;;;;4994713;28;20235;-77
2021/10/12 05:27:17;;;;;;;15.00;11.10;;;9.00;99.90;;;;;;4994508;28;20561;-77
2021/10/12 05:29:43;;;;;;;13.47;11.23;;;9.00;99.90;;;;;;4996605;28;20542;-78
2021/10/12 05:32:09;;;;;;;13.03;10.67;;;9.00;99.90;;;;;;4995109;28;20191;-75
2021/10/12 05:34:34;;;;;;;14.93;11.37;;;9.00;99.90;;;;;;5009781;28;20694;-77
2021/10/12 05:37:00;;;;;;;11.53;10.33;;;9.10;99.90;;;;;;4996158;28;20208;-77
2021/10/12 05:39:28;;;;;;;13.23;10.70;;;9.00;99.90;;;;;;4994692;28;20671;-77
2021/10/12 05:41:56;;;;;;;13.53;11.70;;;9.00;99.90;;;;;;4995754;28;20177;-76
2021/10/12 05:44:21;;;;;;;12.83;11.47;;;9.00;99.90;;;;;;4993150;28;20212;-77
2021/10/12 05:46:47;;;;;;;13.67;11.00;;;9.00;99.90;;;;;;4995449;28;20178;-77
2021/10/12 05:49:13;;;;;;;14.93;10.97;;;9.00;99.90;;;;;;4994580;28;20585;-76
2021/10/12 05:51:41;;;;;;;12.67;10.93;;;8.90;99.90;;;;;;4995946;28;20242;-76
2021/10/12 05:54:07;;;;;;;12.40;11.07;;;8.90;99.90;;;;;;4994339;28;20292;-76
2021/10/12 05:56:48;;;;;;;12.77;11.33;;;9.00;99.90;;;;;;4995170;28;20203;-76
2021/10/12 05:59:14;;;;;;;12.67;10.33;;;9.00;99.90;;;;;;4994028;28;20231;-76
2021/10/12 06:01:41;;;;;;;12.97;10.97;;;9.00;99.90;;;;;;4990682;28;20196;-76
2021/10/12 06:04:07;;;;;;;15.97;11.40;;;8.90;99.90;;;;;;4994422;28;20690;-76
2021/10/12 06:06:33;;;;;;;14.03;11.17;;;8.90;99.90;;;;;;4994973;28;20211;-76
2021/10/12 06:08:59;;;;;;;13.47;10.80;;;8.90;99.90;;;;;;4995688;28;20189;-76
2021/10/12 06:11:25;;;;;;;16.10;11.77;;;9.00;99.90;;;;;;4995731;28;20259;-76
2021/10/12 06:13:52;;;;;;;15.53;11.60;;;9.00;99.90;;;;;;4994247;28;20576;-76
2021/10/12 06:16:18;;;;;;;20.30;11.93;;;9.00;99.90;;;;;;4995094;28;20178;-77
2021/10/12 06:18:44;;;;;;;19.10;11.27;;;8.90;99.90;;;;;;5008391;28;20185;-77
2021/10/12 06:21:10;;;;;;;18.50;12.97;;;9.00;99.90;;;;;;5000268;28;20255;-77
2021/10/12 06:23:36;;;;;;;19.53;11.97;;;9.00;99.90;;;;;;4991938;28;20203;-77
2021/10/12 06:26:02;;;;;;;16.50;12.50;;;9.00;99.90;;;;;;4982365;28;20183;-76
2021/10/12 06:28:29;;;;;;;15.13;12.27;;;9.00;99.90;;;;;;4975829;28;20175;-76
2021/10/12 06:30:55;;;;;;;17.47;12.63;;;9.00;99.90;;;;;;5003369;28;20196;-78
2021/10/12 06:33:20;;;;;;;15.00;11.70;;;9.10;99.90;;;;;;4991093;28;20252;-77
2021/10/12 06:35:46;;;;;;;16.83;12.63;;;9.20;99.90;;;;;;4994886;28;20546;-77
2021/10/12 06:38:12;;;;;;;19.47;12.70;;;9.10;99.90;;;;;;4993846;28;20181;-77
2021/10/12 06:40:38;;;;;;;16.23;12.97;;;9.10;99.90;;;;;;4983285;28;20207;-76
2021/10/12 06:43:04;;;;;;;18.30;12.23;;;9.20;99.90;;;;;;4995316;28;20232;-76
2021/10/12 06:45:30;;;;;;;16.47;11.73;;;9.20;99.90;;;;;;4988171;28;20179;-76
2021/10/12 06:47:56;;;;;;;16.13;11.93;;;9.20;99.90;;;;;;4994012;28;20173;-76
2021/10/12 06:50:23;;;;;;;15.63;12.23;;;9.20;99.90;;;;;;4993748;28;20204;-76
2021/10/12 06:52:49;;;;;;;16.97;12.53;;;9.20;99.90;;;;;;4992658;28;20257;-75
2021/10/12 06:55:15;;;;;;;16.07;11.67;;;9.20;99.90;;;;;;4991442;28;20178;-79
2021/10/12 06:57:42;;;;;;;18.60;13.40;;;9.20;99.90;;;;;;4991087;28;20711;-77
2021/10/12 07:00:13;;;;;;;14.17;12.13;;;9.20;99.90;;;;;;4991800;28;20211;-77
2021/10/12 07:02:43;;;;;;;12.37;10.63;;;9.20;99.90;;;;;;4986408;28;20572;-78
2021/10/12 07:05:10;;;;;;;18.57;11.43;;;9.30;99.90;;;;;;4987624;28;20184;-75
2021/10/12 07:07:36;;;;;;;16.73;11.90;;;9.30;99.90;;;;;;4988708;28;20186;-78
2021/10/12 07:10:03;;;;;;;14.43;12.10;;;9.20;99.90;;;;;;4982888;28;20551;-77
2021/10/12 07:12:29;;;;;;;17.37;12.53;;;9.30;99.90;;;;;;4990753;28;21003;-78
2021/10/12 07:14:54;;;;;;;13.67;12.10;;;9.20;99.90;;;;;;4991251;28;20234;-76
2021/10/12 07:17:20;;;;;;;15.07;11.87;;;9.20;99.90;;;;;;4985469;28;20202;-78
2021/10/12 07:19:46;;;;;;;20.30;12.87;;;9.30;99.90;;;;;;4991040;28;20199;-78
2021/10/12 07:22:12;;;;;;;17.37;13.10;;;9.30;99.90;;;;;;4988800;28;20189;-78
2021/10/12 07:24:37;;;;;;;19.43;13.87;;;9.30;99.90;;;;;;4985315;28;20659;-78
2021/10/12 07:27:03;;;;;;;14.27;12.10;;;9.30;99.90;;;;;;4982924;28;20406;-79
2021/10/12 07:29:29;;;;;;;14.73;13.13;;;9.40;99.90;;;;;;4988976;28;20211;-78
2021/10/12 07:31:54;;;;;;;16.33;12.87;;;9.40;99.90;;;;;;4978961;28;20238;-78
2021/10/12 07:34:20;;;;;;;18.67;13.07;;;9.40;99.90;;;;;;4989206;28;20209;-78
2021/10/12 07:36:46;;;;;;;15.13;12.00;;;9.40;99.90;;;;;;4984764;28;20178;-77
2021/10/12 07:39:12;;;;;;;14.03;12.30;;;9.50;99.90;;;;;;4977000;28;20172;-77
2021/10/12 07:41:39;;;;;;;16.50;12.73;;;9.50;99.90;;;;;;4990133;28;20176;-78
2021/10/12 07:44:06;;;;;;;16.87;12.47;;;9.60;99.90;;;;;;4994154;28;20231;-78
2021/10/12 07:46:32;;;;;;;17.77;13.07;;;9.60;99.90;;;;;;5009383;28;20247;-78
2021/10/12 07:48:58;;;;;;;16.30;12.93;;;9.60;99.90;;;;;;4988088;28;20180;-77
2021/10/12 07:51:28;;;;;;;14.73;12.43;;;9.70;99.90;;;;;;4995857;28;20244;-77
2021/10/12 07:53:57;;;;;;;15.43;12.37;;;9.70;99.90;;;;;;4992754;28;20205;-77
2021/10/12 07:56:36;;;;;;;15.97;12.20;;;9.70;99.90;;;;;;4992098;28;20247;-78
2021/10/12 07:59:07;;;;;;;16.53;12.03;;;9.80;99.90;;;;;;4992210;28;20212;-78
2021/10/12 08:01:33;;;;;;;17.20;12.43;;;9.80;99.90;;;;;;4992120;28;20189;-77
2021/10/12 08:04:00;;;;;;;15.70;12.27;;;9.80;99.90;;;;;;4993134;28;20208;-77
2021/10/12 08:06:26;;;;;;;15.50;12.07;;;9.80;99.90;;;;;;4993882;28;20184;-77
2021/10/12 08:08:52;;;;;;;14.60;12.00;;;9.80;99.90;;;;;;4993314;28;20208;-77
2021/10/12 08:11:22;;;;;;;16.13;12.30;;;9.90;99.90;;;;;;4993186;28;20205;-77
2021/10/12 08:13:49;;;;;;;14.27;11.90;;;9.90;99.90;;;;;;4991885;28;20201;-78
2021/10/12 08:16:19;;;;;;;14.33;12.00;;;9.80;99.90;;;;;;4992329;28;20221;-77
2021/10/12 08:18:46;;;;;;;17.40;12.30;;;9.90;99.90;;;;;;4993576;28;20180;-78
2021/10/12 08:21:12;;;;;;;19.00;13.53;;;9.90;99.90;;;;;;4995974;28;20206;-78
2021/10/12 08:23:38;;;;;;;16.63;13.20;;;10.00;99.90;;;;;;4998197;28;20206;-78
2021/10/12 08:26:03;;;;;;;19.33;13.63;;;9.90;99.90;;;;;;4998844;28;20198;-78
2021/10/12 08:28:29;;;;;;;19.90;13.40;;;10.00;99.90;;;;;;4997674;28;20268;-77
2021/10/12 08:30:55;;;;;;;19.43;13.73;;;10.00;99.90;;;;;;4997667;28;20202;-78
2021/10/12 08:33:20;;;;;;;19.33;15.03;;;10.10;99.90;;;;;;5015838;22;20224;-75
2021/10/12 08:35:46;;;;;;;19.10;15.03;;;10.10;99.90;;;;;;5020750;28;20633;-75
2021/10/12 08:38:16;;;;;;;22.43;16.63;;;10.00;99.90;;;;;;5015185;28;20177;-76
2021/10/12 08:40:44;;;;;;;24.57;16.20;;;10.00;99.90;;;;;;5015701;28;20189;-75
2021/10/12 08:43:10;;;;;;;20.40;15.93;;;10.00;99.90;;;;;;5015872;28;20178;-76
2021/10/12 08:45:38;;;;;;;22.07;16.33;;;10.00;99.90;;;;;;5000649;28;20203;-77
2021/10/12 08:48:06;;;;;;;18.10;15.83;;;10.10;99.90;;;;;;5015605;28;20181;-75
2021/10/12 08:50:32;;;;;;;23.73;16.80;;;10.10;99.90;;;;;;5015666;28;20567;-75
2021/10/12 08:52:59;;;;;;;20.37;16.60;;;10.10;99.90;;;;;;5015426;28;20179;-75
2021/10/12 08:55:28;;;;;;;19.50;16.03;;;10.10;99.90;;;;;;5015543;28;20686;-75
2021/10/12 08:57:54;;;;;;;21.57;16.30;;;10.10;99.90;;;;;;5015563;28;20266;-76
2021/10/12 09:00:21;;;;;;;20.57;15.87;;;10.10;99.90;;;;;;5015332;28;20263;-76
2021/10/12 09:05:52;;;;;;;19.80;16.23;;;10.10;99.90;;;;;;5016408;28;20174;-75
2021/10/12 09:08:26;;;;;;;21.67;16.97;;;10.00;99.90;;;;;;5014980;28;20189;-76
2021/10/12 09:10:53;;;;;;;22.53;16.97;;;10.10;99.90;;;;;;5015206;28;20549;-76
2021/10/12 09:13:19;;;;;;;22.80;17.67;;;10.10;99.90;;;;;;5010594;28;20191;-75
2021/10/12 09:16:04;;;;;;;22.33;16.73;;;10.10;99.90;;;;;;5014159;28;20182;-76
2021/10/12 09:18:50;;;;;;;22.07;17.13;;;10.10;99.90;;;;;;5015227;28;20183;-75
2021/10/12 09:21:21;;;;;;;26.27;18.00;;;10.10;99.90;;;;;;4994127;28;20215;-76
2021/10/12 09:23:48;;;;;;;23.73;17.93;;;10.20;99.90;;;;;;5014353;28;20619;-75
2021/10/12 09:26:28;;;;;;;26.30;17.57;;;10.20;99.90;;;;;;5015164;28;20173;-76
2021/10/12 09:28:58;;;;;;;20.90;17.63;;;10.10;99.90;;;;;;5014891;28;20220;-76
2021/10/12 09:31:33;;;;;;;26.07;18.77;;;10.10;99.90;;;;;;4997281;28;20211;-75
2021/10/12 09:34:03;;;;;;;19.93;16.20;;;10.10;99.90;;;;;;5014318;28;20256;-76
2021/10/12 09:36:34;;;;;;;20.30;17.13;;;10.10;99.90;;;;;;5015124;28;20236;-76
2021/10/12 09:39:00;;;;;;;22.70;17.43;;;10.10;99.90;;;;;;5015869;28;20190;-76
2021/10/12 09:41:27;;;;;;;22.80;16.87;;;10.20;99.90;;;;;;4997624;28;20553;-75
2021/10/12 09:44:09;;;;;;;26.40;17.07;;;10.10;99.90;;;;;;4997166;28;20202;-76
2021/10/12 09:46:35;;;;;;;20.73;16.07;;;10.10;99.90;;;;;;4988782;28;20182;-77
2021/10/12 09:49:16;;;;;;;20.33;16.63;;;10.20;99.90;;;;;;5000660;28;20181;-76
2021/10/12 09:51:55;;;;;;;25.90;17.17;;;10.20;99.90;;;;;;5007652;28;20207;-75
2021/10/12 09:54:26;;;;;;;20.33;16.43;;;10.20;99.90;;;;;;5003920;28;20206;-76
2021/10/12 09:56:51;;;;;;;21.97;17.67;;;10.30;99.90;;;;;;5000767;28;20213;-76
2021/10/12 09:59:18;;;;;;;22.47;17.23;;;10.30;99.90;;;;;;5007404;28;20213;-76
2021/10/12 10:01:48;;;;;;;21.03;16.77;;;10.30;99.90;;;;;;5006794;28;20191;-75
2021/10/12 10:04:18;;;;;;;24.60;17.30;;;10.30;99.90;;;;;;5011000;28;20318;-76
2021/10/12 10:06:44;;;;;;;21.07;16.70;;;10.30;99.90;;;;;;5001844;28;20191;-76
2021/10/12 10:09:12;;;;;;;21.17;15.53;;;10.20;99.90;;;;;;4991126;28;20193;-77
2021/10/12 10:11:38;;;;;;;22.27;16.47;;;10.20;99.90;;;;;;4991130;28;21048;-75
2021/10/12 10:14:06;;;;;;;22.67;16.97;;;10.30;99.90;;;;;;5003553;28;20694;-78
2021/10/12 10:16:32;;;;;;;14.90;11.90;;;10.30;99.90;;;;;;5005737;28;20219;-75
2021/10/12 10:18:59;;;;;;;18.73;12.67;;;10.20;99.90;;;;;;5009414;28;20186;-76
2021/10/12 10:21:26;;;;;;;14.47;11.70;;;10.20;99.90;;;;;;4995039;28;20233;-72
2021/10/12 10:24:09;;;;;;;15.27;12.87;;;10.20;99.90;;;;;;4988244;28;20323;-76
2021/10/12 10:26:43;;;;;;;17.97;14.00;;;10.30;99.90;;;;;;4993522;28;20618;-72
2021/10/12 10:29:29;;;;;;;18.67;13.90;;;10.30;99.90;;;;;;4989850;28;20188;-75
2021/10/12 10:32:00;;;;;;;16.27;14.00;;;10.30;99.90;;;;;;5008706;28;20228;-75
2021/10/12 10:34:34;;;;;;;17.47;14.43;;;10.30;99.90;;;;;;5006072;28;20228;-74
2021/10/12 10:37:15;;;;;;;19.83;14.07;;;10.40;99.90;;;;;;5008294;28;20175;-76
2021/10/12 10:39:46;;;;;;;21.53;14.00;;;10.40;99.90;;;;;;4987081;28;20183;-76
2021/10/12 10:42:27;;;;;;;20.70;15.93;;;10.40;99.90;;;;;;4996994;28;20268;-77
2021/10/12 10:45:01;;;;;;;19.37;13.67;;;10.40;99.90;;;;;;5006158;28;20227;-77
2021/10/12 10:47:42;;;;;;;18.43;14.57;;;10.40;99.90;;;;;;5009303;28;20602;-72
2021/10/12 10:50:15;;;;;;;16.13;13.40;;;10.40;99.90;;;;;;5004466;28;20181;-74
2021/10/12 10:52:50;;;;;;;16.00;11.80;;;10.50;99.90;;;;;;5006003;28;20181;-75
2021/10/12 10:55:40;;;;;;;13.13;10.40;;;10.50;99.90;;;;;;5009171;28;20198;-76
2021/10/12 10:58:16;;;;;;;12.27;10.17;;;10.50;99.90;;;;;;4989527;28;20315;-76
2021/10/12 11:00:52;;;;;;;17.07;10.20;;;10.50;99.90;;;;;;5007535;28;20188;-76
2021/10/12 11:03:30;;;;;;;14.90;11.80;;;10.50;99.90;;;;;;5010517;28;20193;-72
2021/10/12 11:05:57;;;;;;;15.00;12.70;;;10.50;99.90;;;;;;4989457;28;20194;-72
2021/10/12 11:08:32;;;;;;;17.47;13.20;;;10.50;99.90;;;;;;5009525;28;20183;-76
2021/10/12 11:10:58;;;;;;;21.00;14.13;;;10.60;99.90;;;;;;5008649;28;20302;-76
2021/10/12 11:13:46;;;;;;;19.77;13.80;;;10.60;99.90;;;;;;5004435;28;20191;-74
2021/10/12 11:16:14;;;;;;;18.90;13.50;;;10.60;99.90;;;;;;5005345;28;21576;-73
2021/10/12 11:18:58;;;;;;;16.47;13.07;;;10.60;99.90;;;;;;5007129;28;20657;-72
2021/10/12 11:21:24;;;;;;;14.33;11.83;;;10.70;99.90;;;;;;5009346;28;20201;-76
2021/10/12 11:23:51;;;;;;;19.83;14.37;;;10.70;99.90;;;;;;5004040;28;20209;-76
2021/10/12 11:26:22;;;;;;;22.33;15.57;;;10.80;99.90;;;;;;4991818;28;20176;-77
2021/10/12 11:28:53;;;;;;;20.60;15.13;;;10.80;99.90;;;;;;5007835;28;20272;-76
2021/10/12 11:31:26;;;;;;;22.10;16.17;;;10.80;99.90;;;;;;5011536;28;20201;-77
2021/10/12 11:33:54;;;;;;;20.33;15.70;;;10.80;99.90;;;;;;5009155;28;20225;-76
2021/10/12 11:36:28;;;;;;;20.97;16.50;;;10.80;99.90;;;;;;5011852;28;20221;-76
2021/10/12 11:38:55;;;;;;;22.77;16.50;;;10.90;99.90;;;;;;5011623;28;20559;-75
2021/10/12 11:41:37;;;;;;;21.33;16.23;;;10.90;99.90;;;;;;5012085;28;20179;-76
2021/10/12 11:44:20;;;;;;;20.20;15.07;;;10.90;99.90;;;;;;5011793;28;20208;-77
2021/10/12 11:46:48;;;;;;;18.43;14.33;;;10.90;99.90;;;;;;5010308;28;20220;-76
2021/10/12 11:49:16;;;;;;;17.63;14.33;;;10.90;99.90;;;;;;5011550;28;20653;-75
2021/10/12 11:51:43;;;;;;;24.17;15.03;;;10.90;99.90;;;;;;5011560;28;20745;-76
2021/10/12 11:54:10;;;;;;;23.10;14.63;;;10.90;99.90;;;;;;5009658;28;20198;-74
2021/10/12 11:56:37;;;;;;;19.97;14.37;;;10.90;99.90;;;;;;4995561;28;20189;-74
2021/10/12 11:59:10;;;;;;;16.27;13.77;;;11.00;99.90;;;;;;5015612;28;20178;-77
2021/10/12 12:01:44;;;;;;;17.20;13.87;;;11.00;99.90;;;;;;5015330;28;20187;-75
2021/10/12 12:04:25;;;;;;;19.07;13.80;;;11.10;99.90;;;;;;5012858;28;20239;-75
2021/10/12 12:06:51;;;;;;;19.33;13.50;;;11.00;99.90;;;;;;5014744;28;20212;-75
2021/10/12 12:09:20;;;;;;;17.57;13.67;;;11.00;99.90;;;;;;4997644;28;20644;-76
2021/10/12 12:11:46;;;;;;;20.53;14.40;;;11.10;99.90;;;;;;5014359;28;20208;-75
2021/10/12 12:14:12;;;;;;;17.07;13.97;;;11.10;99.90;;;;;;4996796;28;20340;-77
2021/10/12 12:16:38;;;;;;;21.10;16.07;;;11.10;99.90;;;;;;5015730;28;20223;-76
2021/10/12 12:19:23;;;;;;;28.67;19.57;;;11.10;99.90;;;;;;5015506;28;20181;-76
2021/10/12 12:21:51;;;;;;;24.73;19.73;;;11.10;99.90;;;;;;5012683;28;20192;-76
2021/10/12 12:24:21;;;;;;;29.27;20.27;;;11.20;99.90;;;;;;4997539;28;20207;-76
2021/10/12 12:26:59;;;;;;;28.50;19.97;;;11.10;99.90;;;;;;5012450;28;20631;-76
2021/10/12 12:29:25;;;;;;;30.20;20.67;;;11.10;99.90;;;;;;4997274;28;20192;-72
2021/10/12 12:31:53;;;;;;;29.27;20.73;;;11.10;99.90;;;;;;5016084;28;20207;-75
2021/10/12 12:34:35;;;;;;;38.77;21.33;;;11.00;99.90;;;;;;5015640;28;20214;-75
2021/10/12 12:37:05;;;;;;;31.40;22.23;;;11.10;99.90;;;;;;5014668;28;20189;-76
2021/10/12 12:39:41;;;;;;;31.30;22.20;;;11.00;99.90;;;;;;5015327;28;20192;-76